createdAt,value
2023-09-23T00:02:07.809Z,3.70
2023-09-23T00:04:37.731Z,3.47
2023-09-23T00:07:06.248Z,3.65
2023-09-23T00:09:40.608Z,3.60
2023-09-23T00:12:09.007Z,3.50
2023-09-23T00:14:37.058Z,3.65
2023-09-23T00:17:06.120Z,3.55
2023-09-23T00:19:36.138Z,3.47
2023-09-23T00:22:04.424Z,4.15
2023-09-23T00:24:32.346Z,3.75
2023-09-23T00:27:01.243Z,3.60
2023-09-23T00:29:30.871Z,3.63
2023-09-23T00:31:59.201Z,3.78
2023-09-23T00:34:27.283Z,3.67
2023-09-23T00:36:55.533Z,3.40
2023-09-23T00:39:23.750Z,3.85
2023-09-23T00:41:53.495Z,3.80
2023-09-23T00:44:21.801Z,3.85
2023-09-23T00:46:50.017Z,4.00
2023-09-23T00:49:18.212Z,4.13
2023-09-23T00:51:46.551Z,3.90
2023-09-23T00:54:15.621Z,3.78
2023-09-23T00:56:43.901Z,3.60
2023-09-23T00:59:12.624Z,3.80
2023-09-23T01:01:43.268Z,3.90
2023-09-23T01:04:15.052Z,4.18
2023-09-23T01:06:45.090Z,3.55
2023-09-23T01:09:19.402Z,3.70
2023-09-23T01:11:48.252Z,3.92
2023-09-23T01:14:16.843Z,3.63
2023-09-23T01:16:45.313Z,3.75
2023-09-23T01:19:18.285Z,3.90
2023-09-23T01:21:51.128Z,3.88
2023-09-23T01:24:19.919Z,3.90
2023-09-23T01:26:53.746Z,3.70
2023-09-23T01:29:28.197Z,3.95
2023-09-23T01:32:17.318Z,3.50
2023-09-23T01:34:45.579Z,3.10
2023-09-23T01:37:13.843Z,4.00
2023-09-23T01:39:42.922Z,3.40
2023-09-23T01:42:11.074Z,3.42
2023-09-23T01:44:39.215Z,3.15
2023-09-23T01:47:08.187Z,3.35
2023-09-23T01:49:36.962Z,3.58
2023-09-23T01:52:05.232Z,3.45
2023-09-23T01:54:33.344Z,4.07
2023-09-23T01:57:03.675Z,3.60
2023-09-23T01:59:31.810Z,3.25
2023-09-23T02:02:00.547Z,3.30
2023-09-23T02:04:29.056Z,3.50
2023-09-23T02:06:57.723Z,3.90
2023-09-23T02:09:26.802Z,2.97
2023-09-23T02:11:55.195Z,3.25
2023-09-23T02:14:23.422Z,3.55
2023-09-23T02:16:53.430Z,4.05
2023-09-23T02:19:22.767Z,3.33
2023-09-23T02:21:53.713Z,3.63
2023-09-23T02:24:22.159Z,3.50
2023-09-23T02:26:53.252Z,3.58
2023-09-23T02:29:23.882Z,3.83
2023-09-23T02:31:52.549Z,3.72
2023-09-23T02:34:21.823Z,3.63
2023-09-23T02:36:52.404Z,4.03
2023-09-23T02:39:21.831Z,3.90
2023-09-23T02:41:51.690Z,3.50
2023-09-23T02:44:21.663Z,3.50
2023-09-23T02:46:54.171Z,3.40
2023-09-23T02:49:22.902Z,3.17
2023-09-23T02:51:51.096Z,3.55
2023-09-23T02:54:19.586Z,3.72
2023-09-23T02:56:48.685Z,4.05
2023-09-23T02:59:23.048Z,3.92
2023-09-23T03:01:54.990Z,3.77
2023-09-23T03:04:26.179Z,3.95
2023-09-23T03:06:57.813Z,3.90
2023-09-23T03:09:27.151Z,3.70
2023-09-23T03:11:59.971Z,3.58
2023-09-23T03:14:38.619Z,3.60
2023-09-23T03:17:14.623Z,3.63
2023-09-23T03:19:43.104Z,3.80
2023-09-23T03:22:12.230Z,3.75
2023-09-23T03:24:41.180Z,3.45
2023-09-23T03:27:10.463Z,3.50
2023-09-23T03:29:39.247Z,4.03
2023-09-23T03:32:08.478Z,3.67
2023-09-23T03:34:39.459Z,3.67
2023-09-23T03:37:11.226Z,3.58
2023-09-23T03:39:42.567Z,3.67
2023-09-23T03:42:11.498Z,3.78
2023-09-23T03:44:39.497Z,3.97
2023-09-23T03:47:07.659Z,3.75
2023-09-23T03:49:35.767Z,3.95
2023-09-23T03:52:07.204Z,3.65
2023-09-23T03:54:35.517Z,4.60
2023-09-23T03:57:07.272Z,3.70
2023-09-23T03:59:37.646Z,3.65
2023-09-23T04:02:06.855Z,4.00
2023-09-23T04:04:39.392Z,3.60
2023-09-23T04:07:08.998Z,3.55
2023-09-23T04:09:37.126Z,3.75
2023-09-23T04:12:05.600Z,3.67
2023-09-23T04:14:33.778Z,4.07
2023-09-23T04:17:02.154Z,3.45
2023-09-23T04:19:31.704Z,3.55
2023-09-23T04:21:59.733Z,3.72
2023-09-23T04:24:28.362Z,3.83
2023-09-23T04:26:56.846Z,3.67
2023-09-23T04:29:25.280Z,3.45
2023-09-23T04:31:53.924Z,4.13
2023-09-23T04:34:22.100Z,4.38
2023-09-23T04:36:51.308Z,3.88
2023-09-23T04:39:19.701Z,4.07
2023-09-23T04:41:47.843Z,4.03
2023-09-23T04:44:16.014Z,4.05
2023-09-23T04:46:46.814Z,4.22
2023-09-23T04:49:17.916Z,4.30
2023-09-23T04:51:48.364Z,4.30
2023-09-23T04:54:16.542Z,4.30
2023-09-23T04:56:45.005Z,4.03
2023-09-23T04:59:14.084Z,4.15
2023-09-23T05:01:42.203Z,4.85
2023-09-23T05:04:10.819Z,4.68
2023-09-23T05:06:38.995Z,4.37
2023-09-23T05:09:09.560Z,4.18
2023-09-23T05:11:37.896Z,4.28
2023-09-23T05:14:06.486Z,4.97
2023-09-23T05:16:34.943Z,4.78
2023-09-23T05:19:03.211Z,4.90
2023-09-23T05:21:31.395Z,4.35
2023-09-23T05:24:00.322Z,4.70
2023-09-23T05:26:28.513Z,4.60
2023-09-23T05:28:57.697Z,4.55
2023-09-23T05:31:27.029Z,4.70
2023-09-23T05:33:55.237Z,4.75
2023-09-23T05:36:23.300Z,4.70
2023-09-23T05:38:51.300Z,4.65
2023-09-23T05:41:25.805Z,5.40
2023-09-23T05:43:57.350Z,5.37
2023-09-23T05:46:25.948Z,6.93
2023-09-23T05:48:54.045Z,6.90
2023-09-23T05:51:22.213Z,7.28
2023-09-23T05:53:50.433Z,7.20
2023-09-23T05:56:19.054Z,7.50
2023-09-23T05:58:47.988Z,8.32
2023-09-23T06:01:16.120Z,7.60
2023-09-23T06:03:44.311Z,8.45
2023-09-23T06:06:12.971Z,7.45
2023-09-23T06:08:41.195Z,6.72
2023-09-23T06:11:11.960Z,7.90
2023-09-23T06:13:40.162Z,8.73
2023-09-23T06:16:08.928Z,8.50
2023-09-23T06:18:38.513Z,7.97
2023-09-23T06:21:08.193Z,7.53
2023-09-23T06:23:36.392Z,6.77
2023-09-23T06:26:07.408Z,8.07
2023-09-23T06:28:35.981Z,7.78
2023-09-23T06:31:04.681Z,7.88
2023-09-23T06:33:33.066Z,7.25
2023-09-23T06:36:05.742Z,6.55
2023-09-23T06:38:34.830Z,6.40
2023-09-23T06:41:06.141Z,6.82
2023-09-23T06:43:34.300Z,6.47
2023-09-23T06:46:02.733Z,6.45
2023-09-23T06:48:30.935Z,6.00
2023-09-23T06:51:00.078Z,5.72
2023-09-23T06:53:29.101Z,6.40
2023-09-23T06:55:57.983Z,6.55
2023-09-23T06:58:26.321Z,6.40
2023-09-23T07:00:55.677Z,5.93
2023-09-23T07:03:24.270Z,5.85
2023-09-23T07:05:52.266Z,5.60
2023-09-23T07:08:20.432Z,5.85
2023-09-23T07:10:49.212Z,6.05
2023-09-23T07:13:17.589Z,6.65
2023-09-23T07:15:45.642Z,5.45
2023-09-23T07:18:15.885Z,5.97
2023-09-23T07:20:44.620Z,5.60
2023-09-23T07:23:12.787Z,5.07
2023-09-23T07:25:43.954Z,5.35
2023-09-23T07:28:12.196Z,5.30
2023-09-23T07:30:40.509Z,5.93
2023-09-23T07:33:08.925Z,5.63
2023-09-23T07:35:37.363Z,6.38
2023-09-23T07:38:05.707Z,5.28
2023-09-23T07:40:33.881Z,5.03
2023-09-23T07:43:02.198Z,5.10
2023-09-23T07:45:30.865Z,5.40
2023-09-23T07:47:59.373Z,6.07
2023-09-23T07:50:27.961Z,4.78
2023-09-23T07:52:56.241Z,5.00
2023-09-23T07:55:26.360Z,5.13
2023-09-23T07:57:54.583Z,5.13
2023-09-23T08:00:25.443Z,5.72
2023-09-23T08:02:54.645Z,4.90
2023-09-23T08:05:25.907Z,5.55
2023-09-23T08:07:55.153Z,5.30
2023-09-23T08:10:23.201Z,5.38
2023-09-23T08:12:51.236Z,5.72
2023-09-23T08:15:19.241Z,5.00
2023-09-23T08:17:48.006Z,5.40
2023-09-23T08:20:19.744Z,5.17
2023-09-23T08:22:49.161Z,5.13
2023-09-23T08:25:19.390Z,5.38
2023-09-23T08:27:47.936Z,5.70
2023-09-23T08:30:18.568Z,5.07
2023-09-23T08:32:47.356Z,5.70
2023-09-23T08:35:15.434Z,6.00
2023-09-23T08:37:44.329Z,6.03
2023-09-23T08:40:12.885Z,5.95
2023-09-23T08:42:41.370Z,5.32
2023-09-23T08:45:10.588Z,5.27
2023-09-23T08:47:47.609Z,5.32
2023-09-23T08:50:17.172Z,5.47
2023-09-23T08:52:46.096Z,5.35
2023-09-23T08:55:16.838Z,5.50
2023-09-23T08:57:45.682Z,5.47
2023-09-23T09:00:15.197Z,6.03
2023-09-23T09:02:43.372Z,5.82
2023-09-23T09:05:11.950Z,5.40
2023-09-23T09:07:40.357Z,6.13
2023-09-23T09:10:09.075Z,5.80
2023-09-23T09:12:37.415Z,5.63
2023-09-23T09:15:06.043Z,5.82
2023-09-23T09:17:35.467Z,5.38
2023-09-23T09:20:10.854Z,6.00
2023-09-23T09:22:42.540Z,5.00
2023-09-23T09:25:13.408Z,5.18
2023-09-23T09:27:43.333Z,5.30
2023-09-23T09:30:14.088Z,6.10
2023-09-23T09:32:45.198Z,6.22
2023-09-23T09:35:19.229Z,5.67
2023-09-23T09:37:55.419Z,5.25
2023-09-23T09:40:30.490Z,6.13
2023-09-23T09:43:01.860Z,5.43
2023-09-23T09:45:41.914Z,5.25
2023-09-23T09:48:12.041Z,5.53
2023-09-23T09:50:41.562Z,6.32
2023-09-23T09:53:10.352Z,5.75
2023-09-23T09:55:38.978Z,5.40
2023-09-23T09:58:06.856Z,5.65
2023-09-23T10:00:44.113Z,5.20
2023-09-23T10:03:14.850Z,5.45
2023-09-23T10:05:51.612Z,5.43
2023-09-23T10:08:26.941Z,5.40
2023-09-23T10:11:06.697Z,5.53
2023-09-23T10:13:35.603Z,4.90
2023-09-23T10:16:20.884Z,5.65
2023-09-23T10:18:58.841Z,5.60
2023-09-23T10:21:31.505Z,5.22
2023-09-23T10:24:04.438Z,5.22
2023-09-23T10:26:33.121Z,5.10
2023-09-23T10:29:05.660Z,5.93
2023-09-23T10:31:36.122Z,5.07
2023-09-23T10:34:10.147Z,6.03
2023-09-23T10:36:38.638Z,5.85
2023-09-23T10:39:17.227Z,5.50
2023-09-23T10:41:46.302Z,5.65
2023-09-23T10:44:15.883Z,5.78
2023-09-23T10:46:44.244Z,6.50
2023-09-23T10:49:13.707Z,5.75
2023-09-23T10:51:42.850Z,5.70
2023-09-23T10:54:15.716Z,6.78
2023-09-23T10:56:43.920Z,5.97
2023-09-23T10:59:12.822Z,5.57
2023-09-23T11:01:41.260Z,5.40
2023-09-23T11:04:10.114Z,5.70
2023-09-23T11:06:38.967Z,5.95
2023-09-23T11:09:07.506Z,5.68
2023-09-23T11:11:38.598Z,5.72
2023-09-23T11:14:15.171Z,5.65
2023-09-23T11:23:01.030Z,6.05
2023-09-23T11:25:29.761Z,5.63
2023-09-23T11:28:01.424Z,5.57
2023-09-23T11:30:29.991Z,5.57
2023-09-23T11:32:58.365Z,5.60
2023-09-23T11:35:27.037Z,5.97
2023-09-23T11:37:56.359Z,5.43
2023-09-23T11:40:24.603Z,5.43
2023-09-23T11:42:53.151Z,5.73
2023-09-23T11:45:21.907Z,5.88
2023-09-23T11:47:50.771Z,5.65
2023-09-23T11:50:19.491Z,5.47
2023-09-23T11:52:47.599Z,5.43
2023-09-23T11:55:15.746Z,5.33
2023-09-23T11:57:44.426Z,5.47
2023-09-23T12:00:13.079Z,5.53
2023-09-23T12:02:42.512Z,5.50
2023-09-23T12:05:14.366Z,5.57
2023-09-23T12:07:43.334Z,5.60
2023-09-23T12:10:15.348Z,5.38
2023-09-23T12:12:46.948Z,5.07
2023-09-23T12:15:15.784Z,5.53
2023-09-23T12:17:44.083Z,5.13
2023-09-23T12:20:15.838Z,5.60
2023-09-23T12:22:46.599Z,5.20
2023-09-23T12:25:16.040Z,5.70
2023-09-23T12:27:44.102Z,5.38
2023-09-23T12:30:13.581Z,5.80
2023-09-23T12:32:42.083Z,6.10
2023-09-23T12:35:11.833Z,5.43
2023-09-23T12:37:39.935Z,6.18
2023-09-23T12:40:09.016Z,5.50
2023-09-23T12:42:37.049Z,5.88
2023-09-23T12:45:06.628Z,5.60
2023-09-23T12:47:53.264Z,5.50
2023-09-23T12:50:23.533Z,6.07
2023-09-23T12:52:52.098Z,6.15
2023-09-23T12:55:20.997Z,5.50
2023-09-23T12:57:49.922Z,5.63
2023-09-23T13:00:18.393Z,5.85
2023-09-23T13:02:46.682Z,5.90
2023-09-23T13:05:18.133Z,5.97
2023-09-23T13:07:46.459Z,5.93
2023-09-23T13:10:15.624Z,6.07
2023-09-23T13:12:45.670Z,6.00
2023-09-23T13:15:15.596Z,5.70
2023-09-23T13:17:43.925Z,5.57
2023-09-23T13:20:13.221Z,6.50
2023-09-23T13:22:41.996Z,5.87
2023-09-23T13:25:10.649Z,5.95
2023-09-23T13:27:38.805Z,5.70
2023-09-23T13:30:09.746Z,6.10
2023-09-23T13:32:41.439Z,6.40
2023-09-23T13:35:11.226Z,5.90
2023-09-23T13:37:40.158Z,6.15
2023-09-23T13:40:09.258Z,6.72
2023-09-23T13:42:37.374Z,6.30
2023-09-23T13:45:08.707Z,6.05
2023-09-23T13:47:39.112Z,6.33
2023-09-23T13:50:11.275Z,6.70
2023-09-23T13:52:39.886Z,6.97
2023-09-23T13:55:08.519Z,7.25
2023-09-23T13:57:37.083Z,6.80
2023-09-23T14:00:09.469Z,7.00
2023-09-23T14:02:37.930Z,6.93
2023-09-23T14:05:06.610Z,7.60
2023-09-23T14:07:36.544Z,7.28
2023-09-23T14:10:18.867Z,7.13
2023-09-23T14:12:50.728Z,7.07
2023-09-23T14:15:19.842Z,7.47
2023-09-23T14:17:49.441Z,6.75
2023-09-23T14:20:18.089Z,7.00
2023-09-23T14:22:49.889Z,6.40
2023-09-23T14:25:19.106Z,6.50
2023-09-23T14:27:47.175Z,6.60
2023-09-23T14:30:15.395Z,6.30
2023-09-23T14:32:43.588Z,6.70
2023-09-23T14:35:12.336Z,6.18
2023-09-23T14:37:40.385Z,5.90
2023-09-23T14:40:11.676Z,6.13
2023-09-23T14:42:39.959Z,6.03
2023-09-23T14:45:08.709Z,6.13
2023-09-23T14:47:47.117Z,6.63
2023-09-23T14:50:18.573Z,5.90
2023-09-23T14:52:48.632Z,6.10
2023-09-23T14:55:18.023Z,6.30
2023-09-23T14:57:46.175Z,6.75
2023-09-23T15:00:15.763Z,6.57
2023-09-23T15:02:44.340Z,6.63
2023-09-23T15:05:12.994Z,6.65
2023-09-23T15:07:41.304Z,7.15
2023-09-23T15:10:11.836Z,6.60
2023-09-23T15:12:41.010Z,6.80
2023-09-23T15:15:09.668Z,7.53
2023-09-23T15:17:40.949Z,6.88
2023-09-23T15:20:12.490Z,6.45
2023-09-23T15:22:41.442Z,7.47
2023-09-23T15:25:10.233Z,7.05
2023-09-23T15:27:39.029Z,7.63
2023-09-23T15:30:12.135Z,7.68
2023-09-23T15:32:40.798Z,7.68
2023-09-23T15:35:09.562Z,8.02
2023-09-23T15:37:37.974Z,8.70
2023-09-23T15:40:11.607Z,8.03
2023-09-23T15:42:40.662Z,7.75
2023-09-23T15:45:09.283Z,8.10
2023-09-23T15:47:41.414Z,8.50
2023-09-23T15:50:10.725Z,9.23
2023-09-23T15:52:39.385Z,8.50
2023-09-23T15:55:07.782Z,9.20
2023-09-23T15:57:36.660Z,8.70
2023-09-23T16:00:08.352Z,9.18
2023-09-23T16:02:36.922Z,8.25
2023-09-23T16:05:05.260Z,11.02
2023-09-23T16:07:33.580Z,9.53
2023-09-23T16:10:01.719Z,9.38
2023-09-23T16:12:29.781Z,10.73
2023-09-23T16:14:58.000Z,9.82
2023-09-23T16:17:26.348Z,9.73
2023-09-23T16:19:55.096Z,9.03
2023-09-23T16:22:23.365Z,8.45
2023-09-23T16:24:51.698Z,7.05
2023-09-23T16:27:21.890Z,7.03
2023-09-23T16:29:50.288Z,7.78
2023-09-23T16:32:18.452Z,8.90
2023-09-23T16:34:46.574Z,9.55
2023-09-23T16:37:14.501Z,8.60
2023-09-23T16:39:44.340Z,9.30
2023-09-23T16:42:12.240Z,9.70
2023-09-23T16:44:45.558Z,9.60
2023-09-23T16:47:13.860Z,9.60
2023-09-23T16:49:42.039Z,9.48
2023-09-23T16:52:10.345Z,10.50
2023-09-23T16:54:40.293Z,10.23
2023-09-23T16:57:08.362Z,10.40
2023-09-23T16:59:39.088Z,10.10
2023-09-23T17:02:09.929Z,9.82
2023-09-23T17:04:38.150Z,10.48
2023-09-23T17:07:06.417Z,9.60
2023-09-23T17:09:34.472Z,9.50
2023-09-23T17:12:02.570Z,10.27
2023-09-23T17:14:31.242Z,10.07
2023-09-23T17:16:59.415Z,10.23
2023-09-23T17:19:27.493Z,9.43
2023-09-23T17:21:55.658Z,10.20
2023-09-23T17:24:23.919Z,10.23
2023-09-23T17:26:52.608Z,10.15
2023-09-23T17:29:24.267Z,9.90
2023-09-23T17:31:52.938Z,10.68
2023-09-23T17:34:20.986Z,9.87
2023-09-23T17:36:49.181Z,9.57
2023-09-23T17:39:18.531Z,10.43
2023-09-23T17:41:46.850Z,10.23
2023-09-23T17:44:14.979Z,9.70
2023-09-23T17:46:44.480Z,8.80
2023-09-23T17:49:13.134Z,8.35
2023-09-23T17:51:41.369Z,8.52
2023-09-23T17:54:14.225Z,8.50
2023-09-23T17:56:42.381Z,7.85
2023-09-23T17:59:16.990Z,7.13
2023-09-23T18:01:45.290Z,8.02
2023-09-23T18:04:14.073Z,7.97
2023-09-23T18:06:42.468Z,7.60
2023-09-23T18:09:10.803Z,7.72
2023-09-23T18:11:39.330Z,7.80
2023-09-23T18:14:07.730Z,7.40
2023-09-23T18:16:35.918Z,7.60
2023-09-23T18:19:04.084Z,8.60
2023-09-23T18:21:32.504Z,8.43
2023-09-23T18:24:00.751Z,8.23
2023-09-23T18:26:29.080Z,9.38
2023-09-23T18:28:57.143Z,12.25
2023-09-23T18:31:25.390Z,11.68
2023-09-23T18:33:53.410Z,10.20
2023-09-23T18:36:21.540Z,9.70
2023-09-23T18:38:49.725Z,9.07
2023-09-23T18:41:18.486Z,9.30
2023-09-23T18:43:47.015Z,8.88
2023-09-23T18:46:15.488Z,9.73
2023-09-23T18:48:43.772Z,8.40
2023-09-23T18:51:11.999Z,8.65
2023-09-23T18:53:39.971Z,9.35
2023-09-23T18:56:08.144Z,9.52
2023-09-23T18:58:36.945Z,10.90
2023-09-23T19:01:06.011Z,10.00
2023-09-23T19:03:34.241Z,10.55
2023-09-23T19:06:03.106Z,10.55
2023-09-23T19:08:31.372Z,10.25
2023-09-23T19:10:59.572Z,9.52
2023-09-23T19:13:27.686Z,9.10
2023-09-23T19:15:55.964Z,9.68
2023-09-23T19:18:24.227Z,10.02
2023-09-23T19:20:52.556Z,10.18
2023-09-23T19:23:21.119Z,10.27
2023-09-23T19:25:56.565Z,10.43
2023-09-23T19:28:27.079Z,10.02
2023-09-23T19:30:58.312Z,17.08
2023-09-23T19:33:26.637Z,11.10
2023-09-23T19:35:55.285Z,9.85
2023-09-23T19:38:23.529Z,10.07
2023-09-23T19:40:51.871Z,8.63
2023-09-23T19:43:20.171Z,8.43
2023-09-23T19:45:57.095Z,8.50
2023-09-23T19:48:25.258Z,8.80
2023-09-23T19:50:56.191Z,8.50
2023-09-23T19:53:24.516Z,8.35
2023-09-23T19:55:52.486Z,8.40
2023-09-23T19:58:22.244Z,8.30
2023-09-23T20:00:53.533Z,8.90
2023-09-23T20:03:22.313Z,7.13
2023-09-23T20:05:50.770Z,7.18
2023-09-23T20:08:20.694Z,7.20
2023-09-23T20:10:49.150Z,7.32
2023-09-23T20:13:17.353Z,9.23
2023-09-23T20:15:45.618Z,8.13
2023-09-23T20:18:14.066Z,6.30
2023-09-23T20:20:43.833Z,5.00
2023-09-23T20:23:12.173Z,5.68
2023-09-23T20:25:40.464Z,5.03
2023-09-23T20:28:09.526Z,6.17
2023-09-23T20:30:37.979Z,5.72
2023-09-23T20:33:06.675Z,5.05
2023-09-23T20:35:35.096Z,4.72
2023-09-23T20:38:04.522Z,5.07
2023-09-23T20:40:34.228Z,5.43
2023-09-23T20:43:03.758Z,5.22
2023-09-23T20:45:32.260Z,4.30
2023-09-23T20:48:00.433Z,4.72
2023-09-23T20:50:29.613Z,4.60
2023-09-23T20:52:59.126Z,4.70
2023-09-23T20:55:28.735Z,4.80
2023-09-23T20:57:56.704Z,5.07
2023-09-23T21:00:25.130Z,4.30
2023-09-23T21:02:53.246Z,4.20
2023-09-23T21:05:22.452Z,3.80
2023-09-23T21:07:50.955Z,3.72
2023-09-23T21:10:19.478Z,3.83
2023-09-23T21:12:47.747Z,4.03
2023-09-23T21:15:18.855Z,3.90
2023-09-23T21:17:48.096Z,3.80
2023-09-23T21:20:16.669Z,3.97
2023-09-23T21:22:48.514Z,4.25
2023-09-23T21:25:17.734Z,3.90
2023-09-23T21:27:45.851Z,3.72
2023-09-23T21:30:14.501Z,3.90
2023-09-23T21:32:42.461Z,3.97
2023-09-23T21:35:11.509Z,4.05
2023-09-23T21:37:39.740Z,4.03
2023-09-23T21:40:08.994Z,4.28
2023-09-23T21:42:37.526Z,4.23
2023-09-23T21:45:06.551Z,4.72
2023-09-23T21:47:34.807Z,4.53
2023-09-23T21:50:03.522Z,4.72
2023-09-23T21:52:31.476Z,4.78
2023-09-23T21:54:59.812Z,4.40
2023-09-23T21:57:27.885Z,4.60
2023-09-23T21:59:58.198Z,4.65
2023-09-23T22:02:26.706Z,5.00
2023-09-23T22:04:55.065Z,4.70
2023-09-23T22:07:23.184Z,4.75
2023-09-23T22:09:52.700Z,4.57
2023-09-23T22:12:20.821Z,4.28
2023-09-23T22:14:48.834Z,4.00
2023-09-23T22:17:17.073Z,4.03
2023-09-23T22:19:45.144Z,3.65
2023-09-23T22:22:17.592Z,3.60
2023-09-23T22:24:45.841Z,4.00
2023-09-23T22:27:13.673Z,3.50
2023-09-23T22:29:41.707Z,3.47
2023-09-23T22:32:09.722Z,3.13
2023-09-23T22:34:37.727Z,3.43
2023-09-23T22:37:05.804Z,3.30
2023-09-23T22:39:36.704Z,2.78
2023-09-23T22:42:07.349Z,2.55
2023-09-23T22:44:35.986Z,2.85
2023-09-23T22:47:05.526Z,2.65
2023-09-23T22:49:33.597Z,2.30
2023-09-23T22:52:02.046Z,1.67
2023-09-23T22:54:30.205Z,1.58
2023-09-23T22:56:58.509Z,1.50
2023-09-23T22:59:27.105Z,1.10
2023-09-23T23:01:55.925Z,0.93
2023-09-23T23:04:26.271Z,0.90
2023-09-23T23:06:54.596Z,0.90
2023-09-23T23:09:24.064Z,1.00
2023-09-23T23:11:52.409Z,1.00
2023-09-23T23:14:20.832Z,1.03
2023-09-23T23:16:49.243Z,0.97
2023-09-23T23:19:19.135Z,1.20
2023-09-23T23:21:47.290Z,1.25
2023-09-23T23:24:15.285Z,1.30
2023-09-23T23:26:44.125Z,1.35
2023-09-23T23:29:12.057Z,1.10
2023-09-23T23:31:40.234Z,1.17
2023-09-23T23:34:08.273Z,1.10
2023-09-23T23:36:37.000Z,1.48
2023-09-23T23:39:09.016Z,1.40
2023-09-23T23:41:40.320Z,1.43
2023-09-23T23:44:09.617Z,1.60
2023-09-23T23:46:38.462Z,1.40
2023-09-23T23:49:08.321Z,1.27
2023-09-23T23:51:36.547Z,1.65
2023-09-23T23:54:04.713Z,1.50
2023-09-23T23:56:33.468Z,1.60
2023-09-23T23:59:01.876Z,1.73
